sensor_id;sensor_type;location;lat;lon;timestamp;temperature;humidity
21772;DHT22;11047;47.904;8.110;2022-11-30T00:02:14;4.50;99.90
21772;DHT22;11047;47.904;8.110;2022-11-30T00:04:41;4.50;99.90
21772;DHT22;11047;47.904;8.110;2022-11-30T00:07:08;4.40;99.90
21772;DHT22;11047;47.904;8.110;2022-11-30T00:09:37;4.50;99.90
21772;DHT22;11047;47.904;8.110;2022-11-30T00:12:04;4.50;99.90
21772;DHT22;11047;47.904;8.110;2022-11-30T00:14:31;4.50;99.90
21772;DHT22;11047;47.904;8.110;2022-11-30T00:16:58;4.40;99.90
21772;DHT22;11047;47.904;8.110;2022-11-30T00:19:24;4.40;99.90
21772;DHT22;11047;47.904;8.110;2022-11-30T00:21:51;4.70;99.90
21772;DHT22;11047;47.904;8.110;2022-11-30T00:24:18;4.40;99.90
21772;DHT22;11047;47.904;8.110;2022-11-30T00:26:46;4.40;99.90
21772;DHT22;11047;47.904;8.110;2022-11-30T00:29:13;4.40;99.90
21772;DHT22;11047;47.904;8.110;2022-11-30T00:31:40;4.70;99.90
21772;DHT22;11047;47.904;8.110;2022-11-30T00:34:07;4.50;99.90
21772;DHT22;11047;47.904;8.110;2022-11-30T00:36:34;4.40;99.90
21772;DHT22;11047;47.904;8.110;2022-11-30T00:39:01;4.40;99.90
21772;DHT22;11047;47.904;8.110;2022-11-30T00:41:27;4.70;99.90
21772;DHT22;11047;47.904;8.110;2022-11-30T00:43:56;4.50;99.90
21772;DHT22;11047;47.904;8.110;2022-11-30T00:46:23;4.40;99.90
21772;DHT22;11047;47.904;8.110;2022-11-30T00:48:49;4.60;99.90
21772;DHT22;11047;47.904;8.110;2022-11-30T00:51:16;4.40;99.90
21772;DHT22;11047;47.904;8.110;2022-11-30T00:53:45;5.20;99.90
21772;DHT22;11047;47.904;8.110;2022-11-30T00:56:13;4.40;99.90
21772;DHT22;11047;47.904;8.110;2022-11-30T00:58:40;4.40;99.90
21772;DHT22;11047;47.904;8.110;2022-11-30T01:01:08;4.40;99.90
21772;DHT22;11047;47.904;8.110;2022-11-30T01:03:35;4.50;99.90
21772;DHT22;11047;47.904;8.110;2022-11-30T01:06:03;4.50;99.90
21772;DHT22;11047;47.904;8.110;2022-11-30T01:08:30;4.40;99.90
21772;DHT22;11047;47.904;8.110;2022-11-30T01:11:04;4.50;99.90
21772;DHT22;11047;47.904;8.110;2022-11-30T01:13:31;4.40;99.90
21772;DHT22;11047;47.904;8.110;2022-11-30T01:15:58;4.50;99.90
21772;DHT22;11047;47.904;8.110;2022-11-30T01:18:27;4.40;99.90
21772;DHT22;11047;47.904;8.110;2022-11-30T01:20:53;4.40;99.90
21772;DHT22;11047;47.904;8.110;2022-11-30T01:23:20;4.40;99.90
21772;DHT22;11047;47.904;8.110;2022-11-30T01:25:53;4.40;99.90
21772;DHT22;11047;47.904;8.110;2022-11-30T01:28:19;4.40;99.90
21772;DHT22;11047;47.904;8.110;2022-11-30T01:30:55;4.40;99.90
21772;DHT22;11047;47.904;8.110;2022-11-30T01:33:22;4.30;99.90
21772;DHT22;11047;47.904;8.110;2022-11-30T01:35:59;4.50;99.90
21772;DHT22;11047;47.904;8.110;2022-11-30T01:38:29;4.30;99.90
21772;DHT22;11047;47.904;8.110;2022-11-30T01:40:56;4.50;99.90
21772;DHT22;11047;47.904;8.110;2022-11-30T01:43:36;4.40;99.90
21772;DHT22;11047;47.904;8.110;2022-11-30T01:46:03;4.30;99.90
21772;DHT22;11047;47.904;8.110;2022-11-30T01:48:31;4.30;99.90
21772;DHT22;11047;47.904;8.110;2022-11-30T01:50:59;4.40;99.90
21772;DHT22;11047;47.904;8.110;2022-11-30T01:53:26;4.40;99.90
21772;DHT22;11047;47.904;8.110;2022-11-30T01:55:53;4.40;99.90
21772;DHT22;11047;47.904;8.110;2022-11-30T01:58:24;4.40;99.90
21772;DHT22;11047;47.904;8.110;2022-11-30T02:00:52;4.30;99.90
21772;DHT22;11047;47.904;8.110;2022-11-30T02:03:25;4.30;99.90
21772;DHT22;11047;47.904;8.110;2022-11-30T02:05:54;4.30;99.90
21772;DHT22;11047;47.904;8.110;2022-11-30T02:08:22;4.30;99.90
21772;DHT22;11047;47.904;8.110;2022-11-30T02:10:51;4.30;99.90
21772;DHT22;11047;47.904;8.110;2022-11-30T02:13:36;4.30;99.90
21772;DHT22;11047;47.904;8.110;2022-11-30T02:16:14;4.20;99.90
21772;DHT22;11047;47.904;8.110;2022-11-30T02:18:48;4.20;99.90
21772;DHT22;11047;47.904;8.110;2022-11-30T02:21:22;4.20;99.90
21772;DHT22;11047;47.904;8.110;2022-11-30T02:24:24;4.20;99.90
21772;DHT22;11047;47.904;8.110;2022-11-30T02:27:05;4.20;99.90
21772;DHT22;11047;47.904;8.110;2022-11-30T02:29:38;4.20;99.90
21772;DHT22;11047;47.904;8.110;2022-11-30T02:32:09;4.20;99.90
21772;DHT22;11047;47.904;8.110;2022-11-30T02:34:39;4.20;99.90
21772;DHT22;11047;47.904;8.110;2022-11-30T02:37:08;4.20;99.90
21772;DHT22;11047;47.904;8.110;2022-11-30T02:39:37;4.30;99.90
21772;DHT22;11047;47.904;8.110;2022-11-30T02:42:08;4.20;99.90
21772;DHT22;11047;47.904;8.110;2022-11-30T02:44:37;4.30;99.90
21772;DHT22;11047;47.904;8.110;2022-11-30T02:47:14;4.20;99.90
21772;DHT22;11047;47.904;8.110;2022-11-30T02:49:47;4.20;99.90
21772;DHT22;11047;47.904;8.110;2022-11-30T02:52:16;4.00;99.90
21772;DHT22;11047;47.904;8.110;2022-11-30T02:54:44;4.00;99.90
21772;DHT22;11047;47.904;8.110;2022-11-30T02:57:11;3.90;99.90
21772;DHT22;11047;47.904;8.110;2022-11-30T02:59:40;3.90;99.90
21772;DHT22;11047;47.904;8.110;2022-11-30T03:02:07;3.80;99.90
21772;DHT22;11047;47.904;8.110;2022-11-30T03:04:34;3.70;99.90
21772;DHT22;11047;47.904;8.110;2022-11-30T03:07:01;3.70;99.90
21772;DHT22;11047;47.904;8.110;2022-11-30T03:09:28;3.70;99.90
21772;DHT22;11047;47.904;8.110;2022-11-30T03:11:55;3.60;99.90
21772;DHT22;11047;47.904;8.110;2022-11-30T03:14:21;3.50;99.90
21772;DHT22;11047;47.904;8.110;2022-11-30T03:16:50;3.50;99.90
21772;DHT22;11047;47.904;8.110;2022-11-30T03:19:17;3.50;99.90
21772;DHT22;11047;47.904;8.110;2022-11-30T03:21:44;3.40;99.90
21772;DHT22;11047;47.904;8.110;2022-11-30T03:24:10;3.40;99.90
21772;DHT22;11047;47.904;8.110;2022-11-30T03:26:37;3.40;99.90
21772;DHT22;11047;47.904;8.110;2022-11-30T03:29:04;3.30;99.90
21772;DHT22;11047;47.904;8.110;2022-11-30T03:31:31;3.30;99.90
21772;DHT22;11047;47.904;8.110;2022-11-30T03:34:00;3.30;99.90
21772;DHT22;11047;47.904;8.110;2022-11-30T03:36:27;3.30;99.90
21772;DHT22;11047;47.904;8.110;2022-11-30T03:38:54;3.40;99.90
21772;DHT22;11047;47.904;8.110;2022-11-30T03:41:21;3.40;99.90
21772;DHT22;11047;47.904;8.110;2022-11-30T03:43:47;3.30;99.90
21772;DHT22;11047;47.904;8.110;2022-11-30T03:46:15;3.30;99.90
21772;DHT22;11047;47.904;8.110;2022-11-30T03:48:42;3.40;99.90
21772;DHT22;11047;47.904;8.110;2022-11-30T03:51:11;3.40;99.90
21772;DHT22;11047;47.904;8.110;2022-11-30T03:53:39;3.40;99.90
21772;DHT22;11047;47.904;8.110;2022-11-30T03:56:08;3.40;99.90
21772;DHT22;11047;47.904;8.110;2022-11-30T03:58:36;3.40;99.90
21772;DHT22;11047;47.904;8.110;2022-11-30T04:01:06;3.30;99.90
21772;DHT22;11047;47.904;8.110;2022-11-30T04:03:33;3.30;99.90
21772;DHT22;11047;47.904;8.110;2022-11-30T04:06:01;3.20;99.90
21772;DHT22;11047;47.904;8.110;2022-11-30T04:08:29;3.20;99.90
21772;DHT22;11047;47.904;8.110;2022-11-30T04:10:58;3.10;99.90
21772;DHT22;11047;47.904;8.110;2022-11-30T04:13:25;3.20;99.90
21772;DHT22;11047;47.904;8.110;2022-11-30T04:15:53;3.20;99.90
21772;DHT22;11047;47.904;8.110;2022-11-30T04:18:21;3.10;99.90
21772;DHT22;11047;47.904;8.110;2022-11-30T04:20:49;3.10;99.90
21772;DHT22;11047;47.904;8.110;2022-11-30T04:23:17;3.20;99.90
21772;DHT22;11047;47.904;8.110;2022-11-30T04:25:46;3.20;99.90
21772;DHT22;11047;47.904;8.110;2022-11-30T04:28:13;3.20;99.90
21772;DHT22;11047;47.904;8.110;2022-11-30T04:30:41;3.30;99.90
21772;DHT22;11047;47.904;8.110;2022-11-30T04:33:08;3.30;99.90
21772;DHT22;11047;47.904;8.110;2022-11-30T04:35:38;3.30;99.90
21772;DHT22;11047;47.904;8.110;2022-11-30T04:38:06;3.30;99.90
21772;DHT22;11047;47.904;8.110;2022-11-30T04:40:33;3.30;99.90
21772;DHT22;11047;47.904;8.110;2022-11-30T04:43:01;3.30;99.90
21772;DHT22;11047;47.904;8.110;2022-11-30T04:45:28;3.30;99.90
21772;DHT22;11047;47.904;8.110;2022-11-30T04:47:55;3.30;99.90
21772;DHT22;11047;47.904;8.110;2022-11-30T04:50:21;3.30;99.90
21772;DHT22;11047;47.904;8.110;2022-11-30T04:52:48;3.40;99.90
21772;DHT22;11047;47.904;8.110;2022-11-30T04:55:15;3.40;99.90
21772;DHT22;11047;47.904;8.110;2022-11-30T04:57:44;3.40;99.90
21772;DHT22;11047;47.904;8.110;2022-11-30T05:00:15;3.40;99.90
21772;DHT22;11047;47.904;8.110;2022-11-30T05:02:43;3.40;99.90
21772;DHT22;11047;47.904;8.110;2022-11-30T05:05:10;3.40;99.90
21772;DHT22;11047;47.904;8.110;2022-11-30T05:07:37;3.40;99.90
21772;DHT22;11047;47.904;8.110;2022-11-30T05:10:06;3.40;99.90
21772;DHT22;11047;47.904;8.110;2022-11-30T05:12:33;3.40;99.90
21772;DHT22;11047;47.904;8.110;2022-11-30T05:15:00;3.40;99.90
21772;DHT22;11047;47.904;8.110;2022-11-30T05:17:28;3.40;99.90
21772;DHT22;11047;47.904;8.110;2022-11-30T05:19:55;3.40;99.90
21772;DHT22;11047;47.904;8.110;2022-11-30T05:22:22;3.40;99.90
21772;DHT22;11047;47.904;8.110;2022-11-30T05:24:49;3.40;99.90
21772;DHT22;11047;47.904;8.110;2022-11-30T05:27:16;3.50;99.90
21772;DHT22;11047;47.904;8.110;2022-11-30T05:29:43;3.60;99.90
21772;DHT22;11047;47.904;8.110;2022-11-30T05:32:10;3.40;99.90
21772;DHT22;11047;47.904;8.110;2022-11-30T05:34:38;3.40;99.90
21772;DHT22;11047;47.904;8.110;2022-11-30T05:37:05;3.40;99.90
21772;DHT22;11047;47.904;8.110;2022-11-30T05:39:32;3.40;99.90
21772;DHT22;11047;47.904;8.110;2022-11-30T05:41:58;3.40;99.90
21772;DHT22;11047;47.904;8.110;2022-11-30T05:44:25;3.40;99.90
21772;DHT22;11047;47.904;8.110;2022-11-30T05:46:52;3.50;99.90
21772;DHT22;11047;47.904;8.110;2022-11-30T05:49:19;3.30;99.90
21772;DHT22;11047;47.904;8.110;2022-11-30T05:51:47;3.60;99.90
21772;DHT22;11047;47.904;8.110;2022-11-30T05:54:14;3.40;99.90
21772;DHT22;11047;47.904;8.110;2022-11-30T05:56:41;3.40;99.90
21772;DHT22;11047;47.904;8.110;2022-11-30T05:59:08;3.40;99.90
21772;DHT22;11047;47.904;8.110;2022-11-30T06:01:35;3.40;99.90
21772;DHT22;11047;47.904;8.110;2022-11-30T06:04:04;3.40;99.90
21772;DHT22;11047;47.904;8.110;2022-11-30T06:06:31;3.40;99.90
21772;DHT22;11047;47.904;8.110;2022-11-30T06:08:59;3.40;99.90
21772;DHT22;11047;47.904;8.110;2022-11-30T06:11:26;3.40;99.90
21772;DHT22;11047;47.904;8.110;2022-11-30T06:13:53;3.40;99.90
21772;DHT22;11047;47.904;8.110;2022-11-30T06:16:20;3.50;99.90
21772;DHT22;11047;47.904;8.110;2022-11-30T06:18:47;3.50;99.90
21772;DHT22;11047;47.904;8.110;2022-11-30T06:21:14;3.50;99.90
21772;DHT22;11047;47.904;8.110;2022-11-30T06:23:40;3.50;99.90
21772;DHT22;11047;47.904;8.110;2022-11-30T06:26:10;3.50;99.90
21772;DHT22;11047;47.904;8.110;2022-11-30T06:28:38;3.50;99.90
21772;DHT22;11047;47.904;8.110;2022-11-30T06:31:06;3.50;99.90
21772;DHT22;11047;47.904;8.110;2022-11-30T06:33:33;3.50;99.90
21772;DHT22;11047;47.904;8.110;2022-11-30T06:36:00;3.50;99.90
21772;DHT22;11047;47.904;8.110;2022-11-30T06:38:27;3.50;99.90
21772;DHT22;11047;47.904;8.110;2022-11-30T06:40:54;3.60;99.90
21772;DHT22;11047;47.904;8.110;2022-11-30T06:43:22;3.60;99.90
21772;DHT22;11047;47.904;8.110;2022-11-30T06:45:49;3.50;99.90
21772;DHT22;11047;47.904;8.110;2022-11-30T06:48:16;3.50;99.90
21772;DHT22;11047;47.904;8.110;2022-11-30T06:50:42;3.50;99.90
21772;DHT22;11047;47.904;8.110;2022-11-30T06:53:09;3.50;99.90
21772;DHT22;11047;47.904;8.110;2022-11-30T06:55:36;3.50;99.90
21772;DHT22;11047;47.904;8.110;2022-11-30T06:58:04;3.50;99.90
21772;DHT22;11047;47.904;8.110;2022-11-30T07:00:33;3.50;99.90
21772;DHT22;11047;47.904;8.110;2022-11-30T07:03:00;3.80;99.90
21772;DHT22;11047;47.904;8.110;2022-11-30T07:05:28;3.60;99.90
21772;DHT22;11047;47.904;8.110;2022-11-30T07:07:55;3.60;99.90
21772;DHT22;11047;47.904;8.110;2022-11-30T07:10:22;3.60;99.90
21772;DHT22;11047;47.904;8.110;2022-11-30T07:12:49;3.60;99.90
21772;DHT22;11047;47.904;8.110;2022-11-30T07:15:16;3.90;99.90
21772;DHT22;11047;47.904;8.110;2022-11-30T07:17:44;3.60;99.90
21772;DHT22;11047;47.904;8.110;2022-11-30T07:20:12;3.60;99.90
21772;DHT22;11047;47.904;8.110;2022-11-30T07:22:39;3.60;99.90
21772;DHT22;11047;47.904;8.110;2022-11-30T07:25:06;3.70;99.90
21772;DHT22;11047;47.904;8.110;2022-11-30T07:27:51;3.70;99.90
21772;DHT22;11047;47.904;8.110;2022-11-30T07:30:18;3.70;99.90
21772;DHT22;11047;47.904;8.110;2022-11-30T07:32:46;3.70;99.90
21772;DHT22;11047;47.904;8.110;2022-11-30T07:35:13;3.80;99.90
21772;DHT22;11047;47.904;8.110;2022-11-30T07:37:40;3.80;99.90
21772;DHT22;11047;47.904;8.110;2022-11-30T07:40:07;3.80;99.90
21772;DHT22;11047;47.904;8.110;2022-11-30T07:42:34;3.80;99.90
21772;DHT22;11047;47.904;8.110;2022-11-30T07:45:01;3.80;99.90
21772;DHT22;11047;47.904;8.110;2022-11-30T07:47:28;3.80;99.90
21772;DHT22;11047;47.904;8.110;2022-11-30T07:49:56;3.90;99.90
21772;DHT22;11047;47.904;8.110;2022-11-30T07:52:23;3.80;99.90
21772;DHT22;11047;47.904;8.110;2022-11-30T07:54:50;3.80;99.90
21772;DHT22;11047;47.904;8.110;2022-11-30T07:57:17;3.90;99.90
21772;DHT22;11047;47.904;8.110;2022-11-30T07:59:44;3.80;99.90
21772;DHT22;11047;47.904;8.110;2022-11-30T08:02:11;3.80;99.90
21772;DHT22;11047;47.904;8.110;2022-11-30T08:04:38;3.90;99.90
21772;DHT22;11047;47.904;8.110;2022-11-30T08:07:06;3.90;99.90
21772;DHT22;11047;47.904;8.110;2022-11-30T08:09:33;3.90;99.90
21772;DHT22;11047;47.904;8.110;2022-11-30T08:12:00;3.90;99.90
21772;DHT22;11047;47.904;8.110;2022-11-30T08:14:27;3.90;99.90
21772;DHT22;11047;47.904;8.110;2022-11-30T08:16:54;4.00;99.90
21772;DHT22;11047;47.904;8.110;2022-11-30T08:19:20;4.00;99.90
21772;DHT22;11047;47.904;8.110;2022-11-30T08:21:47;4.00;99.90
21772;DHT22;11047;47.904;8.110;2022-11-30T08:24:16;4.10;99.90
21772;DHT22;11047;47.904;8.110;2022-11-30T08:26:43;4.10;99.90
21772;DHT22;11047;47.904;8.110;2022-11-30T08:29:10;4.10;99.90
21772;DHT22;11047;47.904;8.110;2022-11-30T08:31:37;4.20;99.90
21772;DHT22;11047;47.904;8.110;2022-11-30T08:34:06;4.20;99.90
21772;DHT22;11047;47.904;8.110;2022-11-30T08:36:33;4.20;99.90
21772;DHT22;11047;47.904;8.110;2022-11-30T08:39:01;4.20;99.90
21772;DHT22;11047;47.904;8.110;2022-11-30T08:41:31;4.30;99.90
21772;DHT22;11047;47.904;8.110;2022-11-30T08:43:58;4.20;99.90
21772;DHT22;11047;47.904;8.110;2022-11-30T08:46:25;4.10;99.90
21772;DHT22;11047;47.904;8.110;2022-11-30T08:48:52;4.10;99.90
21772;DHT22;11047;47.904;8.110;2022-11-30T08:51:20;4.10;99.90
21772;DHT22;11047;47.904;8.110;2022-11-30T08:53:47;4.20;99.90
21772;DHT22;11047;47.904;8.110;2022-11-30T08:56:17;4.10;99.90
21772;DHT22;11047;47.904;8.110;2022-11-30T08:58:46;4.10;99.90
21772;DHT22;11047;47.904;8.110;2022-11-30T09:01:14;4.00;99.90
21772;DHT22;11047;47.904;8.110;2022-11-30T09:03:42;4.00;99.90
21772;DHT22;11047;47.904;8.110;2022-11-30T09:06:10;4.00;99.90
21772;DHT22;11047;47.904;8.110;2022-11-30T09:08:39;3.90;99.90
21772;DHT22;11047;47.904;8.110;2022-11-30T09:11:07;4.10;99.90
21772;DHT22;11047;47.904;8.110;2022-11-30T09:13:34;3.90;99.90
21772;DHT22;11047;47.904;8.110;2022-11-30T09:16:03;4.20;99.90
21772;DHT22;11047;47.904;8.110;2022-11-30T09:18:30;4.00;99.90
21772;DHT22;11047;47.904;8.110;2022-11-30T09:20:59;4.00;99.90
21772;DHT22;11047;47.904;8.110;2022-11-30T09:23:27;4.00;99.90
21772;DHT22;11047;47.904;8.110;2022-11-30T09:25:55;4.10;99.90
21772;DHT22;11047;47.904;8.110;2022-11-30T09:28:22;4.10;99.90
21772;DHT22;11047;47.904;8.110;2022-11-30T09:30:50;4.10;99.90
21772;DHT22;11047;47.904;8.110;2022-11-30T09:33:18;4.20;99.90
21772;DHT22;11047;47.904;8.110;2022-11-30T09:35:54;4.20;99.90
21772;DHT22;11047;47.904;8.110;2022-11-30T09:38:21;4.20;99.90
21772;DHT22;11047;47.904;8.110;2022-11-30T09:40:51;4.20;99.90
21772;DHT22;11047;47.904;8.110;2022-11-30T09:43:27;4.20;99.90
21772;DHT22;11047;47.904;8.110;2022-11-30T09:45:57;4.20;99.90
21772;DHT22;11047;47.904;8.110;2022-11-30T09:48:48;4.10;99.90
21772;DHT22;11047;47.904;8.110;2022-11-30T09:51:21;4.10;99.90
21772;DHT22;11047;47.904;8.110;2022-11-30T09:53:54;4.00;99.90
21772;DHT22;11047;47.904;8.110;2022-11-30T09:56:25;4.10;99.90
21772;DHT22;11047;47.904;8.110;2022-11-30T09:58:57;4.10;99.90
21772;DHT22;11047;47.904;8.110;2022-11-30T10:01:25;4.10;99.90
21772;DHT22;11047;47.904;8.110;2022-11-30T10:03:54;4.10;99.90
21772;DHT22;11047;47.904;8.110;2022-11-30T10:06:27;4.20;99.90
21772;DHT22;11047;47.904;8.110;2022-11-30T10:09:26;4.20;99.90
21772;DHT22;11047;47.904;8.110;2022-11-30T10:12:00;4.20;99.90
21772;DHT22;11047;47.904;8.110;2022-11-30T10:15:12;4.20;99.90
21772;DHT22;11047;47.904;8.110;2022-11-30T10:17:48;4.10;99.90
21772;DHT22;11047;47.904;8.110;2022-11-30T10:20:27;4.20;99.90
21772;DHT22;11047;47.904;8.110;2022-11-30T10:23:11;4.10;99.90
21772;DHT22;11047;47.904;8.110;2022-11-30T10:25:48;4.20;99.90
21772;DHT22;11047;47.904;8.110;2022-11-30T10:28:26;4.30;99.90
21772;DHT22;11047;47.904;8.110;2022-11-30T10:30:56;4.10;99.90
21772;DHT22;11047;47.904;8.110;2022-11-30T10:33:31;4.30;99.90
21772;DHT22;11047;47.904;8.110;2022-11-30T10:36:05;4.40;99.90
21772;DHT22;11047;47.904;8.110;2022-11-30T10:38:39;4.30;99.90
21772;DHT22;11047;47.904;8.110;2022-11-30T10:41:12;4.40;99.90
21772;DHT22;11047;47.904;8.110;2022-11-30T10:43:49;4.30;99.90
21772;DHT22;11047;47.904;8.110;2022-11-30T10:46:20;4.30;99.90
21772;DHT22;11047;47.904;8.110;2022-11-30T10:48:50;4.40;99.90
21772;DHT22;11047;47.904;8.110;2022-11-30T10:51:19;4.50;99.90
21772;DHT22;11047;47.904;8.110;2022-11-30T10:53:46;4.40;99.90
21772;DHT22;11047;47.904;8.110;2022-11-30T10:56:13;4.40;99.90
21772;DHT22;11047;47.904;8.110;2022-11-30T10:58:50;4.40;99.90
21772;DHT22;11047;47.904;8.110;2022-11-30T11:01:31;4.50;99.90
21772;DHT22;11047;47.904;8.110;2022-11-30T11:04:13;4.50;99.90
21772;DHT22;11047;47.904;8.110;2022-11-30T11:06:44;4.50;99.90
21772;DHT22;11047;47.904;8.110;2022-11-30T11:09:36;4.50;99.90
21772;DHT22;11047;47.904;8.110;2022-11-30T11:12:05;4.50;99.90
21772;DHT22;11047;47.904;8.110;2022-11-30T11:14:39;4.50;99.90
21772;DHT22;11047;47.904;8.110;2022-11-30T11:17:21;4.50;99.90
21772;DHT22;11047;47.904;8.110;2022-11-30T11:19:49;4.50;99.90
21772;DHT22;11047;47.904;8.110;2022-11-30T11:22:20;4.40;99.90
21772;DHT22;11047;47.904;8.110;2022-11-30T11:24:48;4.60;99.90
21772;DHT22;11047;47.904;8.110;2022-11-30T11:27:22;4.90;99.90
21772;DHT22;11047;47.904;8.110;2022-11-30T11:29:59;4.40;99.90
21772;DHT22;11047;47.904;8.110;2022-11-30T11:32:27;4.50;99.90
21772;DHT22;11047;47.904;8.110;2022-11-30T11:34:55;4.40;99.90
21772;DHT22;11047;47.904;8.110;2022-11-30T11:37:25;4.40;99.90
21772;DHT22;11047;47.904;8.110;2022-11-30T11:40:11;4.40;99.90
21772;DHT22;11047;47.904;8.110;2022-11-30T11:42:41;4.40;99.90
21772;DHT22;11047;47.904;8.110;2022-11-30T11:45:15;4.40;99.90
21772;DHT22;11047;47.904;8.110;2022-11-30T11:47:43;4.50;99.90
21772;DHT22;11047;47.904;8.110;2022-11-30T11:50:28;4.60;99.90
21772;DHT22;11047;47.904;8.110;2022-11-30T11:53:18;4.70;99.90
21772;DHT22;11047;47.904;8.110;2022-11-30T11:55:51;4.80;99.90
21772;DHT22;11047;47.904;8.110;2022-11-30T11:58:26;4.80;99.90
21772;DHT22;11047;47.904;8.110;2022-11-30T12:00:56;4.90;99.90
21772;DHT22;11047;47.904;8.110;2022-11-30T12:03:30;5.00;99.90
21772;DHT22;11047;47.904;8.110;2022-11-30T12:06:02;5.10;99.90
21772;DHT22;11047;47.904;8.110;2022-11-30T12:08:37;5.00;99.90
21772;DHT22;11047;47.904;8.110;2022-11-30T12:11:12;4.90;99.90
21772;DHT22;11047;47.904;8.110;2022-11-30T12:13:42;4.90;99.90
21772;DHT22;11047;47.904;8.110;2022-11-30T12:16:22;4.80;99.90
21772;DHT22;11047;47.904;8.110;2022-11-30T12:18:56;4.70;99.90
21772;DHT22;11047;47.904;8.110;2022-11-30T12:21:30;4.70;99.90
21772;DHT22;11047;47.904;8.110;2022-11-30T12:24:19;4.50;99.90
21772;DHT22;11047;47.904;8.110;2022-11-30T12:26:54;4.40;99.90
21772;DHT22;11047;47.904;8.110;2022-11-30T12:29:29;4.50;99.90
21772;DHT22;11047;47.904;8.110;2022-11-30T12:32:06;4.50;99.90
21772;DHT22;11047;47.904;8.110;2022-11-30T12:34:47;4.40;99.90
21772;DHT22;11047;47.904;8.110;2022-11-30T12:37:22;4.60;99.90
21772;DHT22;11047;47.904;8.110;2022-11-30T12:40:02;4.60;99.90
21772;DHT22;11047;47.904;8.110;2022-11-30T12:42:39;4.50;99.90
21772;DHT22;11047;47.904;8.110;2022-11-30T12:45:15;4.60;99.90
21772;DHT22;11047;47.904;8.110;2022-11-30T12:47:54;4.60;99.90
21772;DHT22;11047;47.904;8.110;2022-11-30T12:50:38;4.70;99.90
21772;DHT22;11047;47.904;8.110;2022-11-30T12:53:16;4.60;99.90
21772;DHT22;11047;47.904;8.110;2022-11-30T12:56:01;4.60;99.90
21772;DHT22;11047;47.904;8.110;2022-11-30T12:58:38;4.60;99.90
21772;DHT22;11047;47.904;8.110;2022-11-30T13:01:26;4.50;99.90
21772;DHT22;11047;47.904;8.110;2022-11-30T13:03:58;4.50;99.90
21772;DHT22;11047;47.904;8.110;2022-11-30T13:06:34;4.40;99.90
21772;DHT22;11047;47.904;8.110;2022-11-30T13:09:05;4.60;99.90
21772;DHT22;11047;47.904;8.110;2022-11-30T13:11:39;4.50;99.90
21772;DHT22;11047;47.904;8.110;2022-11-30T13:14:12;4.50;99.90
21772;DHT22;11047;47.904;8.110;2022-11-30T13:16:41;4.40;99.90
21772;DHT22;11047;47.904;8.110;2022-11-30T13:19:18;4.40;99.90
21772;DHT22;11047;47.904;8.110;2022-11-30T13:21:51;4.40;99.90
21772;DHT22;11047;47.904;8.110;2022-11-30T13:24:22;4.40;99.90
21772;DHT22;11047;47.904;8.110;2022-11-30T13:26:58;4.40;99.90
21772;DHT22;11047;47.904;8.110;2022-11-30T13:29:48;4.40;99.90
21772;DHT22;11047;47.904;8.110;2022-11-30T13:32:17;4.30;99.90
21772;DHT22;11047;47.904;8.110;2022-11-30T13:34:44;4.30;99.90
21772;DHT22;11047;47.904;8.110;2022-11-30T13:37:12;4.30;99.90
21772;DHT22;11047;47.904;8.110;2022-11-30T13:39:49;4.30;99.90
21772;DHT22;11047;47.904;8.110;2022-11-30T13:42:31;4.20;99.90
21772;DHT22;11047;47.904;8.110;2022-11-30T13:47:48;4.30;99.90
21772;DHT22;11047;47.904;8.110;2022-11-30T13:50:23;4.40;99.90
21772;DHT22;11047;47.904;8.110;2022-11-30T13:53:19;4.40;99.90
21772;DHT22;11047;47.904;8.110;2022-11-30T13:56:02;4.30;99.90
21772;DHT22;11047;47.904;8.110;2022-11-30T13:58:31;4.30;99.90
21772;DHT22;11047;47.904;8.110;2022-11-30T14:07:01;4.30;99.90
21772;DHT22;11047;47.904;8.110;2022-11-30T14:09:54;4.30;99.90
21772;DHT22;11047;47.904;8.110;2022-11-30T14:15:29;4.30;99.90
21772;DHT22;11047;47.904;8.110;2022-11-30T14:18:21;4.30;99.90
21772;DHT22;11047;47.904;8.110;2022-11-30T14:20:52;4.30;99.90
21772;DHT22;11047;47.904;8.110;2022-11-30T14:23:23;4.50;99.90
21772;DHT22;11047;47.904;8.110;2022-11-30T14:25:53;4.20;99.90
21772;DHT22;11047;47.904;8.110;2022-11-30T14:28:24;4.30;99.90
21772;DHT22;11047;47.904;8.110;2022-11-30T14:30:54;4.20;99.90
21772;DHT22;11047;47.904;8.110;2022-11-30T14:33:26;4.10;99.90
21772;DHT22;11047;47.904;8.110;2022-11-30T14:35:58;4.10;99.90
21772;DHT22;11047;47.904;8.110;2022-11-30T14:38:27;4.10;99.90
21772;DHT22;11047;47.904;8.110;2022-11-30T14:40:56;4.00;99.90
21772;DHT22;11047;47.904;8.110;2022-11-30T14:43:23;4.00;99.90
21772;DHT22;11047;47.904;8.110;2022-11-30T14:45:59;4.00;99.90
21772;DHT22;11047;47.904;8.110;2022-11-30T14:48:26;4.10;99.90
21772;DHT22;11047;47.904;8.110;2022-11-30T14:50:55;4.00;99.90
21772;DHT22;11047;47.904;8.110;2022-11-30T14:53:31;3.90;99.90
21772;DHT22;11047;47.904;8.110;2022-11-30T14:56:18;4.20;99.90
21772;DHT22;11047;47.904;8.110;2022-11-30T14:58:52;3.90;99.90
21772;DHT22;11047;47.904;8.110;2022-11-30T15:01:24;3.90;99.90
21772;DHT22;11047;47.904;8.110;2022-11-30T15:03:53;3.90;99.90
21772;DHT22;11047;47.904;8.110;2022-11-30T15:06:24;3.90;99.90
21772;DHT22;11047;47.904;8.110;2022-11-30T15:08:54;3.80;99.90
21772;DHT22;11047;47.904;8.110;2022-11-30T15:11:22;3.80;99.90
21772;DHT22;11047;47.904;8.110;2022-11-30T15:13:51;3.80;99.90
21772;DHT22;11047;47.904;8.110;2022-11-30T15:16:26;3.80;99.90
21772;DHT22;11047;47.904;8.110;2022-11-30T15:18:55;3.80;99.90
21772;DHT22;11047;47.904;8.110;2022-11-30T15:21:23;3.70;99.90
21772;DHT22;11047;47.904;8.110;2022-11-30T15:23:53;3.70;99.90
21772;DHT22;11047;47.904;8.110;2022-11-30T15:26:23;4.40;99.90
21772;DHT22;11047;47.904;8.110;2022-11-30T15:28:56;3.80;99.90
21772;DHT22;11047;47.904;8.110;2022-11-30T15:31:24;3.80;99.90
21772;DHT22;11047;47.904;8.110;2022-11-30T15:33:55;3.80;99.90
21772;DHT22;11047;47.904;8.110;2022-11-30T15:36:21;3.80;99.90
21772;DHT22;11047;47.904;8.110;2022-11-30T15:38:49;3.80;99.90
21772;DHT22;11047;47.904;8.110;2022-11-30T15:41:18;3.70;99.90
21772;DHT22;11047;47.904;8.110;2022-11-30T15:43:49;3.70;99.90
21772;DHT22;11047;47.904;8.110;2022-11-30T15:46:30;3.70;99.90
21772;DHT22;11047;47.904;8.110;2022-11-30T15:49:16;3.70;99.90
21772;DHT22;11047;47.904;8.110;2022-11-30T15:51:47;3.70;99.90
21772;DHT22;11047;47.904;8.110;2022-11-30T15:54:41;3.70;99.90
21772;DHT22;11047;47.904;8.110;2022-11-30T15:57:08;3.80;99.90
21772;DHT22;11047;47.904;8.110;2022-11-30T15:59:35;3.80;99.90
21772;DHT22;11047;47.904;8.110;2022-11-30T16:02:02;3.80;99.90
21772;DHT22;11047;47.904;8.110;2022-11-30T16:07:52;3.80;99.90
21772;DHT22;11047;47.904;8.110;2022-11-30T16:10:22;3.70;99.90
21772;DHT22;11047;47.904;8.110;2022-11-30T16:12:51;3.70;99.90
21772;DHT22;11047;47.904;8.110;2022-11-30T16:15:20;3.70;99.90
21772;DHT22;11047;47.904;8.110;2022-11-30T16:17:48;3.70;99.90
21772;DHT22;11047;47.904;8.110;2022-11-30T16:20:16;3.70;99.90
21772;DHT22;11047;47.904;8.110;2022-11-30T16:22:46;3.70;99.90